Time;durP1;ratioP1;P1;durP2;ratioP2;P2;SDS_P1;SDS_P2;PMS_P1;PMS_P2;Temp;Humidity;BMP_temperature;BMP_pressure;BME280_temperature;BME280_humidity;BME280_pressure;Samples;Min_cycle;Max_cycle;Signal;HPM_P1;HPM_P2
2021/08/28 00:01:03;;;;;;;22.53;18.63;;;;;;;21.12;71.10;94642.88;5072820;28;20875;-82
2021/08/28 00:03:30;;;;;;;18.97;17.07;;;;;;;20.98;71.64;94650.00;5072455;28;20487;-82
2021/08/28 00:05:57;;;;;;;19.07;16.77;;;;;;;20.97;72.04;94653.69;5072579;28;20524;-82
2021/08/28 00:08:24;;;;;;;19.63;17.50;;;;;;;20.85;71.95;94657.97;5072151;28;20539;-82
2021/08/28 00:10:51;;;;;;;18.10;16.13;;;;;;;20.77;72.18;94662.63;5072427;28;20797;-82
2021/08/28 00:13:18;;;;;;;18.27;15.60;;;;;;;20.71;72.05;94669.56;5072360;28;20907;-82
2021/08/28 00:15:46;;;;;;;18.70;15.70;;;;;;;20.69;72.04;94663.63;5037394;28;20444;-82
2021/08/28 00:18:13;;;;;;;23.90;17.70;;;;;;;20.72;72.87;94665.88;5036865;28;20524;-82
2021/08/28 00:20:40;;;;;;;18.60;16.07;;;;;;;20.67;72.61;94652.31;5072942;28;20449;-83
2021/08/28 00:23:08;;;;;;;21.27;16.67;;;;;;;20.60;72.53;94668.28;5072388;28;20489;-82
2021/08/28 00:25:36;;;;;;;22.33;17.97;;;;;;;20.52;72.75;94659.59;5072317;28;20448;-82
2021/08/28 00:28:03;;;;;;;18.10;16.20;;;;;;;20.51;72.21;94665.97;5072385;28;20806;-82
2021/08/28 00:30:31;;;;;;;21.87;16.87;;;;;;;20.53;72.60;94659.44;5074199;28;20541;-82
2021/08/28 00:33:08;;;;;;;19.33;17.33;;;;;;;20.51;73.25;94663.31;5076503;28;20449;-82
2021/08/28 00:35:35;;;;;;;20.53;16.30;;;;;;;20.53;73.46;94663.94;5076569;28;20524;-82
2021/08/28 00:38:02;;;;;;;22.73;16.40;;;;;;;20.59;73.25;94674.66;5076516;28;20444;-82
2021/08/28 00:40:29;;;;;;;20.00;17.03;;;;;;;20.56;73.59;94667.03;5076109;28;20453;-82
2021/08/28 00:42:56;;;;;;;19.53;17.43;;;;;;;20.56;72.99;94663.56;5076114;28;20572;-82
2021/08/28 00:45:23;;;;;;;25.10;16.80;;;;;;;20.60;72.52;94670.13;5076174;28;20433;-82
2021/08/28 00:47:51;;;;;;;17.77;15.80;;;;;;;20.61;71.98;94669.13;5075939;28;20449;-82
2021/08/28 00:50:21;;;;;;;19.10;15.90;;;;;;;20.59;72.29;94665.81;5040996;28;20520;-82
2021/08/28 00:52:48;;;;;;;18.00;15.53;;;;;;;20.53;73.19;94662.09;5075710;28;20540;-82
2021/08/28 00:55:15;;;;;;;28.57;17.50;;;;;;;20.51;72.90;94672.13;5040962;28;20521;-82
2021/08/28 00:57:42;;;;;;;21.17;16.90;;;;;;;20.52;74.01;94680.94;5075891;28;20944;-82
2021/08/28 01:00:10;;;;;;;25.13;16.37;;;;;;;20.54;73.40;94676.25;5075844;28;20472;-82
2021/08/28 01:02:41;;;;;;;19.63;16.80;;;;;;;20.53;72.95;94671.91;5075833;28;20575;-82
2021/08/28 01:05:15;;;;;;;21.50;17.40;;;;;;;20.56;72.69;94676.88;5075622;28;20531;-82
2021/08/28 01:07:56;;;;;;;18.00;16.03;;;;;;;20.59;72.41;94673.81;5075696;28;20800;-82
2021/08/28 01:10:27;;;;;;;19.70;16.43;;;;;;;20.60;72.61;94673.63;5075598;28;20444;-82
2021/08/28 01:12:59;;;;;;;26.10;18.03;;;;;;;20.56;72.34;94682.22;5075593;28;20457;-83
2021/08/28 01:15:26;;;;;;;21.30;17.93;;;;;;;20.56;72.46;94682.22;5024408;28;20446;-82
2021/08/28 01:17:55;;;;;;;19.57;17.50;;;;;;;20.52;72.29;94683.59;5042276;28;20782;-82
2021/08/28 01:20:32;;;;;;;18.93;16.90;;;;;;;20.56;72.49;94695.56;5024426;28;20873;-82
2021/08/28 01:23:02;;;;;;;19.30;17.13;;;;;;;20.55;72.79;94688.56;5075264;28;20555;-82
2021/08/28 01:25:30;;;;;;;21.37;17.80;;;;;;;20.49;72.26;94687.50;5075228;28;20461;-82
2021/08/28 01:28:03;;;;;;;18.70;16.50;;;;;;;20.44;72.41;94678.44;5040364;28;20452;-82
2021/08/28 01:30:32;;;;;;;21.10;17.50;;;;;;;20.35;72.15;94673.25;5075374;28;20463;-82
2021/08/28 01:32:59;;;;;;;20.30;16.43;;;;;;;20.18;72.74;94666.56;5075151;28;20454;-82
2021/08/28 01:35:26;;;;;;;22.13;18.00;;;;;;;20.16;73.40;94675.75;5075176;28;20445;-82
2021/08/28 01:37:54;;;;;;;19.83;16.83;;;;;;;20.05;73.50;94677.13;5075215;28;20528;-82
2021/08/28 01:40:22;;;;;;;20.33;16.30;;;;;;;19.99;73.61;94675.25;5074818;28;20455;-82
2021/08/28 01:42:49;;;;;;;19.60;15.50;;;;;;;19.97;73.93;94674.59;5075054;28;20483;-82
2021/08/28 01:45:17;;;;;;;24.37;18.37;;;;;;;19.93;73.80;94673.31;5075324;28;20463;-82
2021/08/28 01:47:47;;;;;;;18.30;16.33;;;;;;;19.94;74.58;94672.31;5075135;28;20464;-82
2021/08/28 01:50:19;;;;;;;21.77;16.93;;;;;;;19.88;74.75;94673.06;5074912;28;20535;-82
2021/08/28 01:52:46;;;;;;;23.60;16.20;;;;;;;19.91;74.34;94678.00;5074665;28;20840;-83
2021/08/28 01:55:13;;;;;;;18.50;16.40;;;;;;;19.95;74.89;94673.94;5039507;28;20447;-82
2021/08/28 01:57:41;;;;;;;20.97;17.20;;;;;;;19.92;74.38;94671.66;5074989;28;20532;-83
2021/08/28 02:00:09;;;;;;;20.73;16.73;;;;;;;19.96;74.19;94671.13;5074594;28;20857;-82
2021/08/28 02:02:36;;;;;;;23.83;17.30;;;;;;;19.92;74.35;94667.16;5074352;28;20815;-82
2021/08/28 02:05:05;;;;;;;19.50;17.40;;;;;;;19.96;74.18;94675.63;5074553;28;20443;-82
2021/08/28 02:07:40;;;;;;;23.83;16.40;;;;;;;20.02;73.86;94669.53;5074729;28;20531;-83
2021/08/28 02:10:14;;;;;;;21.30;16.87;;;;;;;20.05;73.61;94675.28;5023232;28;20965;-83
2021/08/28 02:12:43;;;;;;;22.80;16.73;;;;;;;20.00;73.93;94666.22;5074977;28;20456;-83
2021/08/28 02:15:12;;;;;;;22.47;15.90;;;;;;;20.00;74.04;94667.06;5074497;28;20456;-82
2021/08/28 02:17:44;;;;;;;21.27;16.50;;;;;;;20.04;73.58;94670.16;5074616;28;20448;-82
2021/08/28 02:20:16;;;;;;;17.60;15.43;;;;;;;20.06;73.25;94671.59;5074588;28;20445;-82
2021/08/28 02:22:47;;;;;;;21.27;16.40;;;;;;;19.92;72.67;94663.69;5074465;28;20487;-82
2021/08/28 02:25:25;;;;;;;20.37;17.03;;;;;;;19.78;73.23;94668.91;5074356;28;20566;-82
2021/08/28 02:28:04;;;;;;;18.63;15.60;;;;;;;19.77;74.32;94669.94;5038914;28;20435;-82
2021/08/28 02:30:33;;;;;;;20.13;18.00;;;;;;;19.81;75.47;94665.03;5074613;28;20460;-82
2021/08/28 02:33:03;;;;;;;19.97;16.83;;;;;;;19.73;74.61;94670.50;5038807;28;20433;-82
2021/08/28 02:35:33;;;;;;;18.17;16.27;;;;;;;19.70;74.95;94669.06;5074569;28;20524;-82
2021/08/28 02:38:01;;;;;;;18.17;15.63;;;;;;;19.79;74.46;94675.06;5073690;28;20869;-82
2021/08/28 02:40:29;;;;;;;17.93;15.00;;;;;;;19.85;74.67;94670.81;5074131;28;20538;-82
2021/08/28 02:42:57;;;;;;;21.47;15.40;;;;;;;19.87;74.45;94666.94;5038638;28;20487;-82
2021/08/28 02:45:27;;;;;;;20.80;16.53;;;;;;;19.94;74.57;94672.31;5073741;28;20440;-82
2021/08/28 02:47:55;;;;;;;23.93;16.30;;;;;;;19.92;73.71;94666.34;5073945;28;20463;-83
2021/08/28 02:50:25;;;;;;;18.90;15.97;;;;;;;19.87;74.05;94671.44;5073771;28;20862;-82
2021/08/28 02:52:57;;;;;;;18.13;16.20;;;;;;;19.95;74.73;94680.13;5072999;28;20473;-82
2021/08/28 02:55:25;;;;;;;18.13;15.80;;;;;;;20.00;74.81;94676.88;5073896;28;20555;-82
2021/08/28 02:57:54;;;;;;;18.90;15.20;;;;;;;20.04;74.10;94676.28;5073564;28;20953;-82
2021/08/28 03:00:22;;;;;;;20.83;15.40;;;;;;;20.06;74.01;94676.09;5073824;28;20528;-82
2021/08/28 03:02:51;;;;;;;20.80;16.23;;;;;;;20.13;73.51;94676.16;5022245;28;20472;-82
2021/08/28 03:05:18;;;;;;;18.13;16.17;;;;;;;20.15;73.44;94674.94;5073308;28;20461;-82
2021/08/28 03:07:47;;;;;;;19.57;15.37;;;;;;;20.22;74.08;94675.78;5038551;28;20441;-82
2021/08/28 03:10:16;;;;;;;18.47;15.77;;;;;;;20.18;72.98;94679.88;5073279;28;20449;-82
2021/08/28 03:12:43;;;;;;;22.10;17.00;;;;;;;20.17;72.91;94672.06;5073332;28;20440;-82
2021/08/28 03:15:12;;;;;;;21.27;16.23;;;;;;;20.17;73.15;94670.22;5073195;28;20479;-81
2021/08/28 03:17:41;;;;;;;18.00;15.03;;;;;;;20.12;72.91;94664.66;5073084;28;20531;-82
2021/08/28 03:20:12;;;;;;;18.03;15.83;;;;;;;20.10;72.97;94672.84;5073511;28;20445;-82
2021/08/28 03:22:41;;;;;;;23.10;16.50;;;;;;;20.11;73.68;94673.69;5073376;28;20527;-82
2021/08/28 03:25:10;;;;;;;19.97;15.80;;;;;;;20.15;73.69;94677.59;5073218;28;20476;-82
2021/08/28 03:27:41;;;;;;;20.70;16.43;;;;;;;20.14;73.35;94681.28;5072980;28;20532;-82
2021/08/28 03:30:12;;;;;;;21.13;15.10;;;;;;;20.13;73.00;94682.28;5037569;28;20811;-83
2021/08/28 03:32:42;;;;;;;17.47;15.13;;;;;;;20.13;74.13;94682.28;5072999;28;20988;-82
2021/08/28 03:35:10;;;;;;;19.83;15.00;;;;;;;20.11;74.50;94687.00;5073121;28;20445;-82
2021/08/28 03:37:38;;;;;;;19.13;15.83;;;;;;;20.07;75.08;94688.41;5072848;28;20527;-82
2021/08/28 03:40:07;;;;;;;18.50;15.83;;;;;;;20.03;75.35;94681.81;5073058;28;20528;-82
2021/08/28 03:42:34;;;;;;;20.33;15.53;;;;;;;19.95;75.64;94684.59;5072547;28;20528;-82
2021/08/28 03:45:04;;;;;;;17.53;15.60;;;;;;;19.89;75.80;94680.06;5073088;28;20490;-82
2021/08/28 03:47:32;;;;;;;22.73;15.00;;;;;;;19.94;76.28;94689.09;5073048;28;20482;-82
2021/08/28 03:49:59;;;;;;;20.77;15.67;;;;;;;19.97;77.09;94696.75;5072770;28;20453;-82
2021/08/28 03:52:26;;;;;;;18.67;15.40;;;;;;;19.91;75.63;94691.34;5072860;28;20781;-82
2021/08/28 03:54:53;;;;;;;18.73;15.53;;;;;;;19.87;75.18;94701.53;5021076;28;20448;-82
2021/08/28 03:57:20;;;;;;;17.13;14.77;;;;;;;19.76;75.25;94686.91;5072998;28;20538;-82
2021/08/28 03:59:46;;;;;;;19.47;17.13;;;;;;;19.71;75.49;94693.84;5072699;28;20958;-82
2021/08/28 04:02:15;;;;;;;22.70;17.27;;;;;;;19.70;75.21;94695.69;5037341;28;20440;-82
2021/08/28 04:04:42;;;;;;;24.50;17.57;;;;;;;19.71;75.94;94694.66;5071733;28;20931;-82
2021/08/28 04:07:09;;;;;;;19.17;15.23;;;;;;;19.69;75.64;94704.69;5072339;28;20534;-83
2021/08/28 04:09:36;;;;;;;19.40;15.90;;;;;;;19.69;76.18;94704.69;5072877;28;20872;-82
2021/08/28 04:12:03;;;;;;;19.80;16.77;;;;;;;19.66;76.14;94702.41;5072517;28;20519;-82
2021/08/28 04:14:30;;;;;;;23.70;16.83;;;;;;;19.67;75.70;94708.56;5072520;28;20534;-82
2021/08/28 04:16:57;;;;;;;20.30;16.50;;;;;;;19.67;75.91;94698.72;5072744;28;20452;-82
2021/08/28 04:19:25;;;;;;;19.77;17.17;;;;;;;19.67;74.91;94704.03;5020981;28;20451;-82
2021/08/28 04:21:52;;;;;;;24.60;16.03;;;;;;;19.63;75.46;94705.41;5072443;28;20456;-82
2021/08/28 04:24:19;;;;;;;20.90;16.27;;;;;;;19.64;75.67;94704.41;5072600;28;20481;-82
2021/08/28 04:26:46;;;;;;;21.80;17.30;;;;;;;19.64;74.55;94699.06;5072603;28;20532;-82
2021/08/28 04:29:13;;;;;;;17.40;15.00;;;;;;;19.68;75.06;94720.84;5072632;28;20448;-82
2021/08/28 04:31:40;;;;;;;18.37;15.90;;;;;;;19.71;75.61;94720.47;5072428;28;20459;-82
2021/08/28 04:34:07;;;;;;;17.13;15.27;;;;;;;19.76;75.39;94713.53;5072471;28;20877;-82
2021/08/28 04:36:36;;;;;;;21.30;16.63;;;;;;;19.76;75.05;94708.22;5037141;28;20447;-82
2021/08/28 04:39:03;;;;;;;19.87;16.87;;;;;;;19.79;76.05;94713.16;5072275;28;20523;-83
2021/08/28 04:41:30;;;;;;;26.73;16.70;;;;;;;19.80;74.41;94708.66;5072252;28;20449;-82
2021/08/28 04:43:57;;;;;;;18.90;16.00;;;;;;;19.82;74.54;94713.78;5072735;28;21002;-82
2021/08/28 04:46:24;;;;;;;22.10;15.90;;;;;;;19.82;75.32;94717.28;5073506;28;20516;-82
2021/08/28 04:48:50;;;;;;;18.67;16.67;;;;;;;19.80;76.11;94714.00;5020396;28;20462;-82
2021/08/28 04:51:17;;;;;;;19.30;16.80;;;;;;;19.82;75.14;94717.28;5071993;28;20531;-82
2021/08/28 04:53:46;;;;;;;19.33;15.53;;;;;;;19.84;74.92;94714.44;5072372;28;20555;-82
2021/08/28 04:56:13;;;;;;;21.27;16.67;;;;;;;19.91;75.60;94721.44;5037281;28;20446;-83
2021/08/28 04:58:40;;;;;;;22.43;17.43;;;;;;;19.96;74.75;94715.56;5020645;28;20527;-82
2021/08/28 05:01:07;;;;;;;19.30;16.87;;;;;;;19.96;74.26;94715.56;5072067;28;20480;-82
2021/08/28 05:03:34;;;;;;;19.67;14.83;;;;;;;19.96;74.45;94707.59;5072498;28;20519;-82
2021/08/28 05:06:01;;;;;;;17.17;15.37;;;;;;;19.96;74.26;94703.09;5072325;28;20455;-82
2021/08/28 05:08:27;;;;;;;19.70;17.03;;;;;;;19.99;75.19;94699.22;5072269;28;20444;-82
2021/08/28 05:10:56;;;;;;;18.97;15.93;;;;;;;19.90;74.46;94703.00;5077058;28;20871;-82
2021/08/28 05:13:23;;;;;;;21.43;15.90;;;;;;;19.97;74.14;94709.22;5075341;28;20520;-82
2021/08/28 05:15:50;;;;;;;20.77;16.77;;;;;;;20.05;74.11;94719.75;5072780;28;21051;-82
2021/08/28 05:18:17;;;;;;;23.77;17.03;;;;;;;20.05;73.27;94709.09;5075311;28;20532;-82
2021/08/28 05:20:44;;;;;;;18.00;15.70;;;;;;;20.05;74.00;94711.75;5075409;28;20526;-82
2021/08/28 05:23:11;;;;;;;26.23;17.20;;;;;;;20.03;74.25;94706.63;5075365;28;20813;-82
2021/08/28 05:25:38;;;;;;;22.53;15.73;;;;;;;20.18;75.23;94708.34;5075232;28;20938;-82
2021/08/28 05:28:06;;;;;;;20.57;17.30;;;;;;;20.43;73.76;94712.25;5075117;28;20945;-82
2021/08/28 05:30:33;;;;;;;18.07;16.00;;;;;;;20.68;72.30;94707.31;5075287;28;20467;-82
2021/08/28 05:33:00;;;;;;;17.83;15.00;;;;;;;21.03;71.10;94714.25;5075121;28;21192;-82
2021/08/28 05:35:27;;;;;;;21.17;15.53;;;;;;;21.42;69.05;94718.13;5075287;28;20537;-82
2021/08/28 05:37:54;;;;;;;18.80;14.73;;;;;;;21.82;67.96;94726.22;5075015;28;20533;-82
2021/08/28 05:40:21;;;;;;;19.60;16.10;;;;;;;22.14;66.46;94709.44;5075007;28;20445;-82
2021/08/28 05:42:48;;;;;;;20.80;15.87;;;;;;;22.45;65.49;94692.75;5039986;28;20823;-82
2021/08/28 05:45:17;;;;;;;17.10;15.30;;;;;;;22.79;64.82;94693.50;5075369;28;20472;-82
2021/08/28 05:47:44;;;;;;;19.30;15.57;;;;;;;23.19;64.49;94707.63;5074971;28;20587;-82
2021/08/28 05:50:11;;;;;;;19.10;14.57;;;;;;;23.58;62.69;94701.28;5074862;28;20448;-82
2021/08/28 05:52:38;;;;;;;19.63;14.77;;;;;;;23.75;61.77;94701.63;5074727;28;20485;-82
2021/08/28 05:55:10;;;;;;;16.63;14.87;;;;;;;23.78;60.90;94706.53;5074779;28;20525;-82
2021/08/28 05:57:37;;;;;;;20.43;14.57;;;;;;;23.99;61.12;94705.34;5074607;28;20542;-82
2021/08/28 06:00:05;;;;;;;15.90;14.27;;;;;;;24.02;59.39;94695.03;5074635;28;20951;-82
2021/08/28 06:02:36;;;;;;;18.33;15.50;;;;;;;24.13;60.23;94696.19;5074626;28;20448;-82
2021/08/28 06:05:06;;;;;;;18.90;16.10;;;;;;;24.06;59.95;94687.38;5074772;28;20480;-82
2021/08/28 06:07:33;;;;;;;18.20;15.17;;;;;;;23.91;61.00;94687.69;5022864;28;20453;-82
2021/08/28 06:10:00;;;;;;;16.63;14.90;;;;;;;23.65;61.78;94693.22;5074441;28;20451;-82
2021/08/28 06:12:28;;;;;;;16.10;14.40;;;;;;;23.48;62.31;94688.34;5074514;28;20442;-82
2021/08/28 06:14:55;;;;;;;17.50;14.70;;;;;;;23.34;61.64;94688.59;5074547;28;20528;-82
2021/08/28 06:17:22;;;;;;;16.83;15.00;;;;;;;23.14;63.18;94689.53;5074478;28;20533;-82
2021/08/28 06:19:50;;;;;;;18.20;15.00;;;;;;;23.04;64.15;94699.03;5074600;28;20955;-82
2021/08/28 06:22:17;;;;;;;19.40;16.03;;;;;;;23.02;64.07;94695.75;5039316;28;20525;-82
2021/08/28 06:24:44;;;;;;;20.97;16.27;;;;;;;23.01;65.55;94689.56;5074222;28;20480;-81
2021/08/28 06:27:11;;;;;;;21.80;16.80;;;;;;;23.07;65.03;94688.72;5073365;28;20449;-82
2021/08/28 06:29:38;;;;;;;23.77;16.43;;;;;;;23.02;63.58;94683.19;5073988;28;20524;-82
2021/08/28 06:32:05;;;;;;;21.30;15.53;;;;;;;23.12;63.51;94686.22;5073882;28;20539;-82
2021/08/28 06:34:32;;;;;;;17.13;15.20;;;;;;;23.30;63.62;94687.41;5038961;28;20496;-82
2021/08/28 06:37:01;;;;;;;20.50;15.60;;;;;;;23.57;62.86;94688.09;5074341;28;20510;-82
2021/08/28 06:39:28;;;;;;;18.20;16.30;;;;;;;23.61;61.36;94678.59;5074004;28;20549;-82
2021/08/28 06:41:55;;;;;;;22.93;17.00;;;;;;;23.96;62.01;94677.13;5073969;28;20542;-82
2021/08/28 06:44:22;;;;;;;24.13;17.37;;;;;;;24.29;59.42;94676.09;5073781;28;20487;-82
2021/08/28 06:46:49;;;;;;;21.37;16.27;;;;;;;24.55;58.66;94675.81;5073954;28;20732;-82
2021/08/28 06:49:17;;;;;;;22.30;16.83;;;;;;;24.34;57.83;94670.88;5073768;28;20541;-82
2021/08/28 06:51:44;;;;;;;23.40;16.20;;;;;;;24.39;60.80;94665.66;5073884;28;20575;-82
2021/08/28 06:54:12;;;;;;;19.20;14.93;;;;;;;24.62;59.63;94660.50;5073633;28;20504;-82
2021/08/28 06:56:39;;;;;;;18.47;15.77;;;;;;;24.77;57.94;94664.66;5074022;28;20484;-82
2021/08/28 06:59:06;;;;;;;18.80;15.80;;;;;;;25.03;57.29;94669.75;5073448;28;20528;-82
2021/08/28 07:01:33;;;;;;;21.77;16.40;;;;;;;25.15;58.08;94672.50;5073794;28;20531;-82
2021/08/28 07:04:00;;;;;;;22.60;17.17;;;;;;;25.13;56.70;94672.72;5073476;28;20890;-82
2021/08/28 07:06:27;;;;;;;21.20;16.57;;;;;;;25.14;56.79;94678.91;5073420;28;20532;-82
2021/08/28 07:08:54;;;;;;;17.53;15.43;;;;;;;24.91;57.35;94672.38;5037948;28;20448;-82
2021/08/28 07:11:22;;;;;;;19.67;15.93;;;;;;;24.67;57.66;94660.63;5073343;28;20524;-82
2021/08/28 07:13:49;;;;;;;21.30;17.00;;;;;;;24.39;58.10;94666.50;5073414;28;20474;-82
2021/08/28 07:16:16;;;;;;;27.63;16.83;;;;;;;24.26;59.37;94668.41;5073226;28;20943;-82
2021/08/28 07:18:43;;;;;;;22.20;16.47;;;;;;;24.24;59.24;94665.13;5073383;28;20443;-82
2021/08/28 07:21:10;;;;;;;20.10;17.10;;;;;;;24.42;59.32;94670.59;5073074;28;20455;-82
2021/08/28 07:23:37;;;;;;;17.60;15.80;;;;;;;24.31;59.04;94669.47;5073351;28;20448;-82
2021/08/28 07:26:05;;;;;;;19.60;15.60;;;;;;;24.41;59.77;94674.31;5037988;28;20570;-82
2021/08/28 07:28:33;;;;;;;23.23;17.43;;;;;;;24.26;59.21;94660.38;5037554;28;20459;-82
2021/08/28 07:31:02;;;;;;;19.93;16.10;;;;;;;24.53;59.77;94669.84;5072678;28;20977;-82
2021/08/28 07:33:29;;;;;;;18.80;15.50;;;;;;;24.79;58.81;94673.31;5037638;28;20432;-82
2021/08/28 07:35:56;;;;;;;19.13;16.73;;;;;;;24.93;58.78;94666.75;5072713;28;20538;-82
2021/08/28 07:38:23;;;;;;;26.73;16.77;;;;;;;25.22;59.55;94671.41;5073037;28;20522;-82
2021/08/28 07:40:50;;;;;;;22.27;17.30;;;;;;;25.13;57.21;94667.38;5072846;28;20940;-82
2021/08/28 07:43:17;;;;;;;19.50;16.80;;;;;;;25.28;56.88;94662.44;5073119;28;20528;-82
2021/08/28 07:45:45;;;;;;;23.20;18.23;;;;;;;25.37;57.05;94659.44;5072781;28;20524;-82
2021/08/28 07:48:12;;;;;;;18.60;16.60;;;;;;;25.57;57.29;94654.63;5072819;28;20483;-82
2021/08/28 07:50:39;;;;;;;21.77;17.50;;;;;;;25.82;56.89;94643.75;5072738;28;21018;-82
2021/08/28 07:53:06;;;;;;;21.47;16.70;;;;;;;26.07;54.66;94652.44;5072729;28;21002;-82
2021/08/28 07:55:33;;;;;;;19.90;17.00;;;;;;;26.20;53.69;94646.00;5072477;28;20449;-82
2021/08/28 07:58:00;;;;;;;21.37;18.80;;;;;;;26.29;52.99;94644.59;5072655;28;20457;-82
2021/08/28 08:00:29;;;;;;;24.97;17.10;;;;;;;26.45;54.34;94638.56;5020996;28;20449;-82
2021/08/28 08:02:57;;;;;;;18.83;16.67;;;;;;;26.62;53.65;94629.81;5020566;28;20527;-82
2021/08/28 08:05:24;;;;;;;17.87;15.23;;;;;;;26.84;54.89;94630.81;5072390;28;20557;-82
2021/08/28 08:07:51;;;;;;;20.43;16.93;;;;;;;27.02;51.94;94636.06;5072539;28;20491;-82
2021/08/28 08:10:18;;;;;;;21.80;16.53;;;;;;;27.15;52.81;94633.09;5072555;28;20448;-82
2021/08/28 08:12:45;;;;;;;18.27;15.33;;;;;;;27.32;52.78;94624.28;5072557;28;20531;-82
2021/08/28 08:15:12;;;;;;;18.93;16.40;;;;;;;27.32;51.70;94622.41;5073027;28;20539;-82
2021/08/28 08:17:39;;;;;;;19.57;17.20;;;;;;;27.20;50.62;94618.13;5072371;28;20999;-82
2021/08/28 08:20:08;;;;;;;23.13;16.20;;;;;;;27.01;51.77;94623.66;5072614;28;20480;-82
2021/08/28 08:22:35;;;;;;;21.57;17.20;;;;;;;26.95;52.67;94613.81;5037221;28;20460;-82
2021/08/28 08:25:02;;;;;;;18.83;16.80;;;;;;;26.99;51.83;94617.69;5072271;28;20920;-82
2021/08/28 08:27:29;;;;;;;19.53;16.63;;;;;;;27.13;51.83;94613.66;5072341;28;20452;-82
2021/08/28 08:29:56;;;;;;;24.57;17.87;;;;;;;27.13;51.69;94613.66;5072311;28;20473;-82
2021/08/28 08:32:23;;;;;;;20.70;16.70;;;;;;;26.88;51.67;94602.34;5072156;28;20440;-82
2021/08/28 08:34:53;;;;;;;18.73;16.73;;;;;;;26.95;52.79;94604.91;5072484;28;20879;-83
2021/08/28 08:37:21;;;;;;;17.87;16.10;;;;;;;26.85;52.81;94605.50;5072544;28;20441;-82
2021/08/28 08:39:48;;;;;;;17.63;15.77;;;;;;;26.76;53.68;94599.69;5072272;28;20472;-82
2021/08/28 08:42:17;;;;;;;17.67;15.37;;;;;;;26.89;53.17;94590.53;5072031;28;20795;-82
2021/08/28 08:44:47;;;;;;;26.00;16.70;;;;;;;26.77;53.15;94593.25;5071938;28;20535;-82
2021/08/28 08:47:14;;;;;;;18.93;15.70;;;;;;;26.89;54.13;94590.53;5072258;28;20445;-82
2021/08/28 08:49:42;;;;;;;17.90;16.00;;;;;;;26.98;51.37;94577.50;5072235;28;20448;-82
2021/08/28 08:52:10;;;;;;;19.13;17.10;;;;;;;27.08;53.00;94577.72;5074946;28;20476;-82
2021/08/28 08:54:39;;;;;;;17.60;15.87;;;;;;;27.15;51.95;94573.81;5075766;28;20451;-82
2021/08/28 08:57:08;;;;;;;16.80;15.00;;;;;;;27.32;52.50;94565.81;5075759;28;20967;-82
2021/08/28 08:59:35;;;;;;;17.70;15.90;;;;;;;27.38;53.31;94572.09;5076164;28;20806;-82
2021/08/28 09:02:02;;;;;;;19.13;17.10;;;;;;;27.39;52.08;94560.25;5075409;28;20553;-82
2021/08/28 09:04:30;;;;;;;22.20;16.10;;;;;;;27.31;51.92;94560.66;5075792;28;20436;-81
2021/08/28 09:06:57;;;;;;;18.20;15.87;;;;;;;27.05;53.28;94559.34;5076826;28;20889;-82
2021/08/28 09:09:24;;;;;;;24.03;16.67;;;;;;;27.13;53.13;94553.56;5076423;28;20539;-82
2021/08/28 09:22:02;;;;;;;19.53;16.13;;;;;;;27.64;54.02;94528.38;5034316;28;20418;-79
2021/08/28 09:24:43;;;;;;;22.43;17.03;;;;;;;27.74;52.20;94525.03;5034623;28;21247;-84
2021/08/28 09:27:10;;;;;;;19.93;17.87;;;;;;;27.92;51.92;94524.78;5034041;28;20438;-83
2021/08/28 09:29:43;;;;;;;19.83;16.70;;;;;;;27.62;52.77;94513.50;5034005;28;20442;-82
2021/08/28 09:32:12;;;;;;;20.17;17.73;;;;;;;27.47;53.11;94522.16;5034195;28;20435;-84
2021/08/28 09:34:41;;;;;;;18.00;16.20;;;;;;;27.30;54.32;94513.22;5034146;28;21324;-86
2021/08/28 09:37:11;;;;;;;17.77;15.80;;;;;;;27.41;54.59;94501.53;5033767;28;20439;-83
2021/08/28 09:39:40;;;;;;;19.33;17.33;;;;;;;26.97;54.45;94514.75;5034884;28;20450;-84
2021/08/28 09:42:08;;;;;;;20.83;17.23;;;;;;;27.11;56.07;94497.25;5034528;28;20526;-84
2021/08/28 09:44:40;;;;;;;17.37;15.60;;;;;;;27.14;55.81;94487.88;5038469;28;20506;-82
2021/08/28 09:47:15;;;;;;;20.30;17.53;;;;;;;27.12;54.98;94498.88;5076078;28;20477;-83
2021/08/28 09:49:44;;;;;;;17.53;15.57;;;;;;;27.16;57.45;94485.75;5076788;28;20463;-85
2021/08/28 09:52:13;;;;;;;21.50;18.60;;;;;;;26.77;55.42;94485.53;5075566;28;20464;-83
2021/08/28 09:54:41;;;;;;;28.07;19.20;;;;;;;26.62;56.30;94481.75;5075580;28;20435;-82
2021/08/28 09:57:08;;;;;;;22.07;19.20;;;;;;;26.69;56.66;94474.34;5075507;28;20988;-83
2021/08/28 09:59:35;;;;;;;20.47;17.70;;;;;;;26.96;58.83;94471.91;5075778;28;20437;-83
2021/08/28 10:02:07;;;;;;;21.70;18.10;;;;;;;27.00;56.53;94473.91;5075863;28;20516;-86
2021/08/28 10:04:53;;;;;;;18.63;16.47;;;;;;;27.02;56.26;94470.97;5075713;28;20512;-85
2021/08/28 10:07:23;;;;;;;20.13;16.83;;;;;;;27.05;58.44;94473.16;5075369;28;20440;-84
2021/08/28 10:16:35;;;;;;;28.93;18.60;;;;;;;26.53;58.00;94457.06;5074323;28;20836;-82
2021/08/28 10:19:02;;;;;;;19.57;17.00;;;;;;;26.73;58.16;94456.66;5021701;28;20446;-81
2021/08/28 10:21:36;;;;;;;22.40;19.90;;;;;;;26.88;58.20;94462.31;5057450;28;20944;-81
2021/08/28 10:24:05;;;;;;;23.57;18.83;;;;;;;27.04;58.64;94464.25;5055179;28;20513;-81
2021/08/28 10:26:32;;;;;;;19.27;16.67;;;;;;;27.13;58.59;94459.28;5055399;28;20492;-82
2021/08/28 10:29:04;;;;;;;22.60;18.23;;;;;;;27.19;56.67;94457.53;5056762;28;20538;-83
2021/08/28 10:31:32;;;;;;;22.63;18.27;;;;;;;27.30;59.69;94452.06;5056855;28;20453;-82
2021/08/28 10:34:01;;;;;;;19.60;17.43;;;;;;;27.22;57.10;94444.38;5055687;28;20466;-83
2021/08/28 10:36:28;;;;;;;22.37;18.73;;;;;;;27.11;58.89;94443.38;5054824;28;20493;-85
2021/08/28 10:38:56;;;;;;;21.97;19.70;;;;;;;26.98;57.61;94438.28;5054712;28;20530;-82
2021/08/28 10:41:25;;;;;;;21.83;19.07;;;;;;;27.03;58.76;94433.00;5054645;28;20513;-82
2021/08/28 10:43:53;;;;;;;19.07;17.23;;;;;;;27.11;59.92;94434.47;5054591;28;20946;-83
2021/08/28 10:46:22;;;;;;;24.30;19.60;;;;;;;27.12;58.31;94434.22;5054647;28;20481;-82
2021/08/28 10:48:52;;;;;;;21.50;18.07;;;;;;;27.21;57.74;94423.88;5054485;28;20499;-82
2021/08/28 10:51:23;;;;;;;20.57;17.90;;;;;;;27.41;58.42;94426.06;5058464;28;20528;-84
2021/08/28 10:53:53;;;;;;;22.37;18.83;;;;;;;27.53;58.07;94426.81;5035052;28;20441;-84
2021/08/28 10:56:20;;;;;;;22.03;19.40;;;;;;;27.54;57.00;94414.97;5034655;28;20435;-84
2021/08/28 10:59:22;;;;;;;23.77;18.93;;;;;;;27.50;57.54;94419.22;5034400;28;20884;-84
2021/08/28 11:01:54;;;;;;;20.67;18.47;;;;;;;27.44;59.66;94420.19;5034338;28;20448;-85
2021/08/28 11:04:40;;;;;;;24.00;19.20;;;;;;;27.39;59.70;94422.81;5035459;28;20513;-85
2021/08/28 11:07:26;;;;;;;21.43;19.23;;;;;;;27.32;58.86;94422.97;5034290;28;20514;-87
2021/08/28 11:10:11;;;;;;;23.20;20.07;;;;;;;27.27;59.43;94419.41;5034266;28;20530;-86
2021/08/28 11:12:54;;;;;;;22.50;19.97;;;;;;;27.21;59.49;94425.78;5034303;28;20458;-82
2021/08/28 11:15:52;;;;;;;21.23;18.70;;;;;;;27.23;58.88;94412.88;5033619;28;20950;-84
2021/08/28 11:18:45;;;;;;;22.10;19.67;;;;;;;27.27;58.50;94411.31;5034063;28;20446;-83
2021/08/28 11:21:13;;;;;;;25.80;18.90;;;;;;;27.45;59.33;94413.75;5034386;28;20490;-83
2021/08/28 11:23:43;;;;;;;20.73;18.43;;;;;;;27.68;58.00;94410.91;5034546;28;20435;-84
2021/08/28 11:26:12;;;;;;;22.60;19.90;;;;;;;27.90;58.42;94413.63;5034461;28;20558;-83
2021/08/28 11:28:42;;;;;;;21.60;17.50;;;;;;;28.07;57.83;94405.50;5034842;28;20455;-83
2021/08/28 11:34:33;;;;;;;26.40;19.30;;;;;;;27.99;58.35;94395.13;5033127;28;20812;-82
2021/08/28 11:37:45;;;;;;;20.17;17.30;;;;;;;27.65;58.23;94392.50;5034448;28;20506;-82
2021/08/28 11:40:30;;;;;;;25.57;18.93;;;;;;;27.74;59.23;94374.84;4953999;29;20986;-82
2021/08/28 11:42:58;;;;;;;22.13;19.17;;;;;;;27.73;58.80;94372.41;4953612;29;21015;-82
2021/08/28 11:45:38;;;;;;;25.73;18.43;;;;;;;27.85;58.65;94370.41;4953566;29;20451;-82